createdAt,value
2023-03-17T00:00:23.073Z,8.34
2023-03-17T00:01:23.032Z,8.41
2023-03-17T00:02:23.155Z,8.31
2023-03-17T00:03:23.155Z,8.92
2023-03-17T00:04:23.207Z,8.07
2023-03-17T00:05:23.088Z,8.34
2023-03-17T00:06:23.097Z,7.53
2023-03-17T00:07:23.115Z,7.81
2023-03-17T00:08:23.093Z,7.11
2023-03-17T00:09:23.105Z,7.27
2023-03-17T00:11:23.093Z,7.42
2023-03-17T00:12:23.051Z,7.97
2023-03-17T00:13:23.100Z,7.46
2023-03-17T00:14:23.071Z,7.12
2023-03-17T00:15:23.106Z,7.11
2023-03-17T00:16:23.189Z,6.32
2023-03-17T00:18:23.100Z,7.01
2023-03-17T00:19:23.090Z,7.73
2023-03-17T00:20:23.116Z,8.14
2023-03-17T00:21:23.092Z,8.57
2023-03-17T00:22:23.087Z,7.62
2023-03-17T00:24:23.136Z,7.65
2023-03-17T00:25:23.101Z,8.54
2023-03-17T00:26:23.098Z,7.57
2023-03-17T00:27:23.106Z,6.50
2023-03-17T00:28:23.130Z,7.66
2023-03-17T00:30:23.108Z,7.54
2023-03-17T00:31:23.229Z,7.36
2023-03-17T00:32:23.157Z,7.29
2023-03-17T00:33:23.141Z,7.66
2023-03-17T00:36:23.197Z,6.91
2023-03-17T00:38:23.135Z,7.28
2023-03-17T00:39:23.160Z,7.31
2023-03-17T00:40:23.171Z,7.26
2023-03-17T00:41:23.158Z,7.78
2023-03-17T00:42:23.126Z,7.83
2023-03-17T00:43:23.131Z,7.19
2023-03-17T00:44:23.158Z,6.87
2023-03-17T00:45:23.137Z,7.05
2023-03-17T00:47:23.152Z,6.96
2023-03-17T00:48:23.140Z,6.96
2023-03-17T00:49:23.181Z,7.34
2023-03-17T00:50:23.193Z,7.50
2023-03-17T00:51:23.228Z,6.99
2023-03-17T00:52:23.190Z,7.59
2023-03-17T00:53:23.183Z,7.21
2023-03-17T00:54:23.185Z,7.59
2023-03-17T00:55:23.184Z,7.23
2023-03-17T00:57:23.158Z,6.61
2023-03-17T00:58:23.208Z,7.72
2023-03-17T00:59:23.207Z,7.78
2023-03-17T01:00:23.216Z,7.54
2023-03-17T01:01:23.243Z,9.00
2023-03-17T01:02:23.253Z,7.73
2023-03-17T01:03:23.188Z,9.28
2023-03-17T01:04:23.210Z,8.63
2023-03-17T01:05:23.240Z,8.19
2023-03-17T01:07:23.209Z,9.22
2023-03-17T01:08:23.234Z,8.28
2023-03-17T01:09:23.265Z,8.34
2023-03-17T01:10:23.232Z,8.41
2023-03-17T01:11:23.234Z,8.48
2023-03-17T01:12:23.258Z,7.97
2023-03-17T01:13:23.247Z,8.98
2023-03-17T01:14:23.251Z,8.02
2023-03-17T01:15:23.240Z,7.66
2023-03-17T01:21:23.232Z,8.50
2023-03-17T01:22:23.248Z,8.04
2023-03-17T01:23:23.217Z,8.12
2023-03-17T01:24:23.222Z,7.98
2023-03-17T01:25:23.234Z,8.25
2023-03-17T01:26:25.941Z,7.92
2023-03-17T01:27:23.311Z,8.04
2023-03-17T01:29:23.270Z,8.68
2023-03-17T01:32:23.301Z,7.92
2023-03-17T01:33:23.294Z,7.68
2023-03-17T01:34:23.295Z,8.51
2023-03-17T01:36:23.308Z,7.41
2023-03-17T01:38:23.287Z,8.26
2023-03-17T01:40:23.358Z,7.97
2023-03-17T01:42:23.314Z,8.03
2023-03-17T01:44:23.288Z,7.56
2023-03-17T01:45:23.329Z,7.02
2023-03-17T01:46:23.278Z,6.72
2023-03-17T01:47:23.333Z,7.30
2023-03-17T01:48:23.323Z,6.76
2023-03-17T01:49:23.335Z,6.84
2023-03-17T01:50:23.283Z,7.34
2023-03-17T01:51:23.297Z,6.59
2023-03-17T01:53:23.373Z,6.94
2023-03-17T01:54:23.337Z,6.48
2023-03-17T01:55:23.366Z,6.63
2023-03-17T01:56:23.340Z,6.37
2023-03-17T01:57:23.381Z,6.61
2023-03-17T01:58:23.414Z,6.65
2023-03-17T01:59:23.322Z,6.35
2023-03-17T02:00:23.309Z,6.29
2023-03-17T02:01:23.432Z,6.39
2023-03-17T02:02:23.376Z,6.48
2023-03-17T02:03:23.325Z,6.05
2023-03-17T02:04:23.513Z,7.18
2023-03-17T02:05:23.380Z,7.24
2023-03-17T02:06:23.328Z,6.86
2023-03-17T02:07:23.526Z,6.69
2023-03-17T02:09:23.323Z,6.46
2023-03-17T02:11:23.394Z,6.90
2023-03-17T02:13:23.353Z,6.46
2023-03-17T02:14:23.376Z,6.38
2023-03-17T02:15:23.397Z,6.63
2023-03-17T02:16:23.396Z,6.22
2023-03-17T02:17:23.357Z,6.40
2023-03-17T02:18:23.372Z,6.25
2023-03-17T02:19:23.408Z,6.64
2023-03-17T02:20:23.368Z,6.73
2023-03-17T02:21:23.408Z,6.38
2023-03-17T02:22:23.405Z,5.82
2023-03-17T02:23:23.470Z,6.68
2023-03-17T02:24:23.375Z,6.33
2023-03-17T02:25:23.379Z,6.11
2023-03-17T02:26:23.397Z,5.40
2023-03-17T02:27:23.380Z,6.63
2023-03-17T02:28:23.398Z,6.46
2023-03-17T02:29:23.450Z,6.42
2023-03-17T02:30:23.418Z,5.98
2023-03-17T02:31:23.482Z,6.01
2023-03-17T02:32:23.475Z,7.37
2023-03-17T02:33:23.408Z,6.59
2023-03-17T02:34:23.445Z,6.80
2023-03-17T02:35:23.473Z,6.86
2023-03-17T02:36:23.475Z,6.40
2023-03-17T02:37:23.435Z,7.08
2023-03-17T02:38:23.445Z,6.49
2023-03-17T02:40:23.415Z,6.91
2023-03-17T02:41:23.489Z,7.54
2023-03-17T02:42:23.455Z,7.31
2023-03-17T02:43:23.462Z,7.16
2023-03-17T02:45:23.472Z,7.64
2023-03-17T02:46:23.621Z,7.23
2023-03-17T02:47:23.476Z,6.91
2023-03-17T02:48:23.425Z,6.78
2023-03-17T02:49:23.448Z,6.84
2023-03-17T02:50:23.483Z,7.16
2023-03-17T02:51:23.501Z,7.16
2023-03-17T02:52:23.535Z,7.18
2023-03-17T02:53:23.492Z,7.16
2023-03-17T02:55:23.459Z,6.69
2023-03-17T02:58:23.504Z,6.91
2023-03-17T02:59:23.499Z,6.55
2023-03-17T03:00:23.527Z,6.69
2023-03-17T03:01:23.580Z,6.36
2023-03-17T03:02:23.564Z,6.76
2023-03-17T03:03:23.531Z,6.07
2023-03-17T03:04:23.521Z,7.07
2023-03-17T03:05:23.519Z,7.87
2023-03-17T03:06:23.480Z,7.85
2023-03-17T03:07:23.474Z,7.48
2023-03-17T03:09:23.684Z,6.95
2023-03-17T03:10:23.501Z,7.07
2023-03-17T03:11:23.492Z,7.20
2023-03-17T03:12:23.536Z,7.59
2023-03-17T03:13:23.558Z,6.87
2023-03-17T03:14:23.543Z,7.19
2023-03-17T03:16:23.560Z,7.25
2023-03-17T03:17:23.553Z,6.88
2023-03-17T03:18:23.549Z,7.25
2023-03-17T03:20:23.551Z,7.30
2023-03-17T03:21:23.566Z,8.01
2023-03-17T03:22:23.570Z,6.96
2023-03-17T03:23:23.631Z,7.46
2023-03-17T03:24:23.558Z,7.55
2023-03-17T03:26:23.517Z,6.64
2023-03-17T03:27:23.550Z,7.05
2023-03-17T03:28:23.595Z,6.83
2023-03-17T03:30:23.589Z,7.90
2023-03-17T03:31:23.592Z,7.53
2023-03-17T03:32:23.545Z,7.52
2023-03-17T03:33:23.572Z,7.43
2023-03-17T03:34:23.592Z,7.47
2023-03-17T03:35:23.558Z,7.60
2023-03-17T03:37:23.561Z,7.08
2023-03-17T03:38:23.589Z,7.62
2023-03-17T03:39:23.564Z,7.37
2023-03-17T03:40:23.574Z,6.69
2023-03-17T03:41:23.605Z,6.44
2023-03-17T03:43:24.161Z,6.50
2023-03-17T03:44:23.575Z,7.17
2023-03-17T03:45:23.566Z,6.97
2023-03-17T03:46:23.682Z,7.30
2023-03-17T03:49:23.618Z,6.87
2023-03-17T03:50:23.599Z,7.05
2023-03-17T03:51:23.656Z,7.68
2023-03-17T03:52:23.591Z,7.25
2023-03-17T03:53:23.624Z,6.86
2023-03-17T03:54:23.652Z,7.68
2023-03-17T03:57:23.637Z,6.75
2023-03-17T03:58:23.639Z,6.86
2023-03-17T03:59:23.615Z,6.62
2023-03-17T04:00:23.605Z,6.26
2023-03-17T04:01:23.652Z,6.54
2023-03-17T04:02:23.828Z,6.56
2023-03-17T04:04:23.689Z,6.28
2023-03-17T04:05:23.612Z,6.66
2023-03-17T04:07:23.738Z,5.85
2023-03-17T04:08:23.668Z,6.28
2023-03-17T04:09:23.653Z,6.27
2023-03-17T04:10:23.635Z,6.63
2023-03-17T04:11:23.633Z,7.19
2023-03-17T04:12:23.651Z,6.89
2023-03-17T04:13:23.648Z,6.78
2023-03-17T04:14:23.679Z,6.96
2023-03-17T04:15:23.684Z,6.61
2023-03-17T04:18:23.661Z,6.43
2023-03-17T04:19:23.742Z,6.71
2023-03-17T04:20:23.702Z,6.76
2023-03-17T04:21:23.699Z,6.44
2023-03-17T04:22:23.656Z,6.22
2023-03-17T04:23:23.663Z,6.26
2023-03-17T04:24:23.712Z,6.74
2023-03-17T04:25:23.708Z,6.03
2023-03-17T04:27:23.709Z,6.74
2023-03-17T04:29:23.713Z,6.25
2023-03-17T04:30:23.708Z,6.73
2023-03-17T04:31:23.715Z,6.28
2023-03-17T04:33:23.683Z,5.76
2023-03-17T04:35:23.700Z,5.43
2023-03-17T04:36:23.690Z,5.95
2023-03-17T04:39:23.714Z,5.84
2023-03-17T04:40:23.749Z,6.18
2023-03-17T04:41:23.740Z,6.15
2023-03-17T04:42:23.739Z,5.92
2023-03-17T04:43:23.770Z,6.04
2023-03-17T04:45:23.751Z,6.16
2023-03-17T04:46:23.770Z,5.92
2023-03-17T04:48:23.727Z,6.12
2023-03-17T04:49:23.787Z,6.01
2023-03-17T04:52:23.748Z,5.35
2023-03-17T04:53:23.794Z,6.39
2023-03-17T04:54:23.765Z,6.14
2023-03-17T04:55:23.749Z,6.03
2023-03-17T04:56:23.735Z,6.43
2023-03-17T04:57:23.743Z,6.74
2023-03-17T04:58:30.527Z,6.87
2023-03-17T04:59:23.788Z,6.74
2023-03-17T05:00:23.802Z,6.32
2023-03-17T05:01:23.808Z,6.40
2023-03-17T05:02:23.919Z,6.35
2023-03-17T05:05:23.826Z,6.18
2023-03-17T05:08:23.761Z,6.34
2023-03-17T05:09:23.773Z,6.81
2023-03-17T05:10:23.768Z,6.30
2023-03-17T05:12:23.819Z,6.96
2023-03-17T05:15:23.813Z,6.81
2023-03-17T05:16:23.835Z,6.32
2023-03-17T05:17:23.796Z,6.65
2023-03-17T05:18:23.809Z,6.75
2023-03-17T05:19:23.788Z,5.85
2023-03-17T05:21:23.849Z,6.90
2023-03-17T05:22:23.815Z,6.94
2023-03-17T05:23:23.851Z,6.56
2023-03-17T05:24:24.013Z,6.75
2023-03-17T05:25:24.093Z,6.64
2023-03-17T05:26:23.815Z,7.02
2023-03-17T05:27:23.845Z,6.97
2023-03-17T05:28:23.821Z,6.51
2023-03-17T05:29:24.036Z,7.12
2023-03-17T05:30:24.090Z,7.22
2023-03-17T05:31:23.905Z,7.19
2023-03-17T05:32:23.835Z,6.45
2023-03-17T05:33:23.872Z,6.70
2023-03-17T05:34:24.001Z,6.88
2023-03-17T05:35:23.832Z,6.99
2023-03-17T05:38:23.854Z,6.45
2023-03-17T05:39:24.005Z,6.77
2023-03-17T05:41:24.104Z,6.46
2023-03-17T05:42:24.114Z,8.07
2023-03-17T05:44:24.079Z,6.79
2023-03-17T05:46:24.124Z,6.87
2023-03-17T05:47:24.046Z,7.05
2023-03-17T05:48:24.040Z,6.78
2023-03-17T05:49:24.095Z,6.98
2023-03-17T05:50:24.115Z,6.59
2023-03-17T05:51:24.132Z,6.86
2023-03-17T05:52:24.037Z,6.50
2023-03-17T05:53:24.226Z,7.73
2023-03-17T05:54:24.091Z,7.79
2023-03-17T05:56:24.151Z,8.06
2023-03-17T05:57:24.094Z,7.21
2023-03-17T05:58:24.095Z,7.54
2023-03-17T05:59:24.045Z,7.55
2023-03-17T06:00:24.024Z,7.22
2023-03-17T06:01:24.196Z,6.99
2023-03-17T06:02:24.252Z,7.68
2023-03-17T06:03:24.143Z,7.83
2023-03-17T06:04:24.072Z,7.70
2023-03-17T06:05:24.157Z,7.97
2023-03-17T06:06:24.147Z,7.47
2023-03-17T06:07:24.154Z,7.57
2023-03-17T06:09:24.177Z,7.64
2023-03-17T06:11:24.146Z,7.75
2023-03-17T06:13:24.195Z,8.43
2023-03-17T06:15:24.146Z,8.09
2023-03-17T06:16:24.326Z,7.45
2023-03-17T06:17:24.146Z,7.60
2023-03-17T06:18:24.101Z,7.60
2023-03-17T06:19:24.202Z,7.89
2023-03-17T06:20:24.181Z,7.56
2023-03-17T06:21:24.186Z,6.93
2023-03-17T06:22:24.179Z,7.72
2023-03-17T06:23:24.220Z,7.48
2023-03-17T06:24:24.220Z,7.40
2023-03-17T06:25:24.125Z,6.57
2023-03-17T06:26:24.237Z,8.33
2023-03-17T06:27:24.136Z,7.54
2023-03-17T06:28:24.157Z,7.28
2023-03-17T06:29:24.153Z,7.68
2023-03-17T06:30:24.115Z,7.45
2023-03-17T06:31:24.238Z,7.32
2023-03-17T06:32:24.099Z,6.99
2023-03-17T06:33:24.213Z,6.72
2023-03-17T06:34:24.171Z,7.71
2023-03-17T06:35:24.175Z,6.90
2023-03-17T06:36:24.228Z,7.73
2023-03-17T06:37:24.233Z,7.35
2023-03-17T06:38:24.233Z,7.83
2023-03-17T06:39:24.217Z,7.60
2023-03-17T06:40:24.134Z,7.40
2023-03-17T06:41:24.136Z,8.01
2023-03-17T06:42:24.214Z,7.57
2023-03-17T06:43:24.174Z,7.64
2023-03-17T06:44:24.200Z,8.08
2023-03-17T06:45:24.226Z,6.43
2023-03-17T06:46:24.323Z,7.51
2023-03-17T06:47:25.961Z,7.21
2023-03-17T06:48:24.169Z,7.79
2023-03-17T06:49:24.131Z,7.06
2023-03-17T06:50:24.162Z,7.07
2023-03-17T06:51:24.206Z,8.07
2023-03-17T06:52:24.091Z,7.41
2023-03-17T06:53:24.227Z,6.73
2023-03-17T06:54:24.107Z,7.33
2023-03-17T06:55:24.174Z,7.42
2023-03-17T06:56:30.246Z,6.79
2023-03-17T06:57:24.176Z,7.52
2023-03-17T06:58:24.118Z,7.46
2023-03-17T06:59:24.213Z,8.17
2023-03-17T07:00:24.095Z,8.67
2023-03-17T07:01:24.158Z,7.30
2023-03-17T07:02:24.137Z,7.62
2023-03-17T07:03:24.248Z,7.17
2023-03-17T07:04:24.182Z,7.07
2023-03-17T07:05:24.091Z,7.53
2023-03-17T07:06:24.168Z,7.17
2023-03-17T07:07:24.216Z,6.79
2023-03-17T07:08:24.223Z,6.50
2023-03-17T07:09:24.149Z,7.44
2023-03-17T07:10:24.210Z,7.06
2023-03-17T07:11:24.195Z,8.06
2023-03-17T07:12:24.118Z,7.20
2023-03-17T07:13:25.006Z,7.37
2023-03-17T07:14:24.149Z,6.83
2023-03-17T07:15:24.224Z,6.60
2023-03-17T07:16:24.308Z,7.05
2023-03-17T07:17:24.166Z,7.76
2023-03-17T07:18:24.208Z,7.64
2023-03-17T07:19:24.145Z,7.54
2023-03-17T07:20:24.162Z,7.48
2023-03-17T07:21:24.222Z,7.20
2023-03-17T07:22:24.219Z,7.57
2023-03-17T07:23:24.112Z,7.55
2023-03-17T07:24:24.223Z,7.59
2023-03-17T07:25:24.218Z,7.58
2023-03-17T07:26:24.182Z,7.49
2023-03-17T07:27:24.174Z,8.10
2023-03-17T07:28:24.215Z,7.98
2023-03-17T07:29:24.160Z,7.33
2023-03-17T07:30:24.202Z,8.35
2023-03-17T07:31:24.239Z,8.85
2023-03-17T07:32:24.228Z,7.31
2023-03-17T07:33:24.282Z,8.50
2023-03-17T07:34:24.190Z,7.70
2023-03-17T07:35:24.209Z,7.92
2023-03-17T07:36:24.216Z,9.48
2023-03-17T07:37:24.171Z,8.58
2023-03-17T07:38:24.188Z,7.86
2023-03-17T07:39:24.204Z,7.37
2023-03-17T07:40:24.185Z,7.53
2023-03-17T07:41:24.205Z,7.95
2023-03-17T07:42:24.215Z,7.53
2023-03-17T07:43:24.182Z,8.20
2023-03-17T07:44:24.228Z,8.27
2023-03-17T07:45:24.236Z,7.84
2023-03-17T07:46:24.321Z,8.36
2023-03-17T07:47:24.188Z,7.47
2023-03-17T07:48:24.214Z,8.74
2023-03-17T07:49:40.121Z,9.42
2023-03-17T07:50:24.172Z,8.66
2023-03-17T07:52:24.235Z,9.52
2023-03-17T07:53:24.243Z,8.49
2023-03-17T07:54:24.224Z,8.51
2023-03-17T07:55:24.190Z,8.49
2023-03-17T07:56:24.184Z,7.98
2023-03-17T07:57:24.359Z,7.62
2023-03-17T07:58:24.234Z,8.57
2023-03-17T07:59:24.288Z,7.72
2023-03-17T08:00:24.213Z,7.93
2023-03-17T08:01:24.198Z,8.04
2023-03-17T08:02:24.466Z,9.21
2023-03-17T08:03:24.320Z,7.84
2023-03-17T08:04:24.242Z,7.89
2023-03-17T08:05:24.232Z,8.69
2023-03-17T08:06:24.255Z,8.55
2023-03-17T08:07:24.221Z,8.43
2023-03-17T08:08:24.264Z,8.30
2023-03-17T08:09:24.280Z,8.46
2023-03-17T08:10:24.261Z,7.75
2023-03-17T08:11:24.236Z,8.04
2023-03-17T08:12:24.235Z,8.17
2023-03-17T08:13:24.278Z,7.75
2023-03-17T08:14:24.287Z,7.96
2023-03-17T08:15:24.573Z,7.63
2023-03-17T08:16:24.337Z,8.74
2023-03-17T08:17:24.270Z,8.23
2023-03-17T08:18:24.277Z,7.37
2023-03-17T08:19:24.324Z,7.61
2023-03-17T08:20:24.291Z,8.13
2023-03-17T08:21:24.296Z,8.03
2023-03-17T08:22:24.268Z,8.21
2023-03-17T08:23:24.270Z,7.89
2023-03-17T08:24:24.288Z,8.14
2023-03-17T08:25:24.313Z,7.84
2023-03-17T08:26:24.329Z,7.72
2023-03-17T08:27:24.277Z,7.94
2023-03-17T08:28:24.323Z,8.05
2023-03-17T08:29:24.349Z,9.17
2023-03-17T08:30:24.370Z,8.00
2023-03-17T08:31:24.390Z,7.44
2023-03-17T08:32:24.301Z,8.68
2023-03-17T08:33:24.282Z,7.77
2023-03-17T08:34:24.276Z,7.28
2023-03-17T08:35:24.314Z,8.11
2023-03-17T08:36:24.369Z,8.36
2023-03-17T08:37:24.348Z,7.51
2023-03-17T08:38:24.316Z,8.42
2023-03-17T08:39:24.288Z,8.31
2023-03-17T08:40:24.302Z,8.02
2023-03-17T08:41:24.346Z,8.45
2023-03-17T08:42:24.365Z,8.74
2023-03-17T08:43:24.306Z,8.28
2023-03-17T08:44:24.365Z,7.73
2023-03-17T08:45:24.353Z,8.01
2023-03-17T08:46:24.406Z,7.82
2023-03-17T08:47:24.346Z,8.62
2023-03-17T08:48:24.380Z,8.09
2023-03-17T08:49:24.395Z,7.81
2023-03-17T08:50:24.379Z,8.16
2023-03-17T08:51:24.722Z,8.77
2023-03-17T08:52:24.377Z,7.53
2023-03-17T08:53:24.331Z,7.91
2023-03-17T08:54:24.417Z,7.99
2023-03-17T08:55:24.404Z,8.89
2023-03-17T08:56:24.398Z,8.07
2023-03-17T08:57:24.404Z,8.57
2023-03-17T08:58:24.392Z,8.55
2023-03-17T08:59:24.412Z,9.48
2023-03-17T09:00:24.398Z,8.69
2023-03-17T09:01:24.448Z,8.17
2023-03-17T09:02:24.497Z,8.23
2023-03-17T09:03:24.408Z,8.10
2023-03-17T09:04:24.435Z,7.93
2023-03-17T09:05:24.359Z,7.87
2023-03-17T09:06:24.377Z,8.79
2023-03-17T09:07:24.383Z,7.03
2023-03-17T09:08:24.428Z,8.56
2023-03-17T09:09:24.450Z,8.55
2023-03-17T09:10:24.389Z,8.87
2023-03-17T09:11:24.392Z,9.26
2023-03-17T09:12:24.429Z,8.77
2023-03-17T09:13:24.380Z,8.42
2023-03-17T09:14:24.481Z,8.77
2023-03-17T09:15:24.442Z,8.51
2023-03-17T09:16:24.560Z,8.03
2023-03-17T09:17:24.416Z,8.35
2023-03-17T09:18:24.453Z,9.20
2023-03-17T09:20:24.425Z,8.33
2023-03-17T09:21:24.414Z,7.82
2023-03-17T09:22:24.458Z,8.05
2023-03-17T09:23:24.454Z,8.39
2023-03-17T09:24:24.450Z,8.07
2023-03-17T09:25:24.421Z,8.43
2023-03-17T09:26:24.460Z,9.11
2023-03-17T09:27:24.459Z,7.74
2023-03-17T09:28:24.453Z,8.58
2023-03-17T09:29:24.485Z,9.30
2023-03-17T09:30:24.554Z,10.26
2023-03-17T09:31:24.592Z,8.67
2023-03-17T09:32:24.474Z,9.62
2023-03-17T09:33:24.449Z,10.31
2023-03-17T09:34:24.441Z,11.10
2023-03-17T09:35:24.476Z,8.32
2023-03-17T09:36:24.447Z,9.55
2023-03-17T09:37:24.465Z,8.92
2023-03-17T09:39:24.497Z,9.29
2023-03-17T09:40:26.257Z,8.81
2023-03-17T09:41:24.462Z,8.27
2023-03-17T09:42:24.495Z,9.68
2023-03-17T09:43:24.462Z,8.70
2023-03-17T09:44:24.492Z,9.09
2023-03-17T09:45:24.552Z,8.47
2023-03-17T09:46:24.564Z,8.11
2023-03-17T09:47:24.546Z,8.74
2023-03-17T09:48:24.516Z,9.57
2023-03-17T09:49:24.517Z,8.97
2023-03-17T09:50:24.562Z,8.40
2023-03-17T09:51:24.484Z,9.02
2023-03-17T09:52:24.508Z,8.74
2023-03-17T09:53:24.501Z,9.31
2023-03-17T09:54:24.534Z,9.05
2023-03-17T09:55:24.547Z,9.05
2023-03-17T09:56:24.495Z,8.33
2023-03-17T09:57:24.573Z,8.74
2023-03-17T09:58:24.513Z,8.93
2023-03-17T09:59:24.515Z,9.15
2023-03-17T10:00:24.591Z,10.34
2023-03-17T10:01:24.540Z,11.98
2023-03-17T10:02:24.559Z,11.32
2023-03-17T10:03:24.538Z,9.80
2023-03-17T10:04:24.527Z,9.49
2023-03-17T10:05:24.695Z,10.49
2023-03-17T10:06:24.559Z,9.78
2023-03-17T10:07:24.564Z,9.88
2023-03-17T10:08:31.065Z,10.49
2023-03-17T10:09:26.868Z,9.61
2023-03-17T10:10:24.625Z,9.98
2023-03-17T10:11:24.542Z,9.26
2023-03-17T10:12:24.589Z,9.49
2023-03-17T10:13:24.614Z,8.96
2023-03-17T10:14:24.587Z,9.09
2023-03-17T10:15:24.643Z,9.21
2023-03-17T10:16:24.582Z,10.25
2023-03-17T10:17:24.590Z,9.51
2023-03-17T10:18:24.551Z,9.67
2023-03-17T10:19:24.606Z,10.31
2023-03-17T10:20:24.629Z,9.04
2023-03-17T10:21:24.631Z,10.15
2023-03-17T10:22:24.597Z,9.05
2023-03-17T10:23:24.670Z,10.12
2023-03-17T10:24:24.615Z,9.70
2023-03-17T10:27:24.650Z,9.84
2023-03-17T10:28:24.636Z,10.48
2023-03-17T10:29:24.631Z,10.72
2023-03-17T10:30:24.687Z,10.26
2023-03-17T10:31:24.722Z,10.68
2023-03-17T10:32:24.605Z,10.20
2023-03-17T10:33:24.689Z,10.98
2023-03-17T10:35:24.652Z,10.20
2023-03-17T10:36:24.598Z,10.80
2023-03-17T10:37:24.664Z,9.73
2023-03-17T10:38:24.611Z,10.82
2023-03-17T10:39:24.734Z,10.36
2023-03-17T10:40:24.684Z,10.73
2023-03-17T10:41:24.650Z,10.71
2023-03-17T10:42:24.668Z,9.75
2023-03-17T10:43:24.666Z,9.81
2023-03-17T10:44:24.675Z,9.69
2023-03-17T10:45:24.698Z,9.36
2023-03-17T10:46:24.721Z,8.86
2023-03-17T10:47:24.676Z,8.56
2023-03-17T10:49:24.685Z,9.95
2023-03-17T10:50:24.711Z,9.59
2023-03-17T10:51:24.681Z,9.59
2023-03-17T10:52:24.683Z,9.05
2023-03-17T10:53:24.676Z,9.61
2023-03-17T10:54:24.710Z,10.47
2023-03-17T10:55:24.686Z,9.82
2023-03-17T10:56:24.671Z,9.58
2023-03-17T10:57:24.693Z,9.23
2023-03-17T10:58:24.705Z,8.67
2023-03-17T11:00:24.752Z,8.49
2023-03-17T11:01:24.734Z,8.87
2023-03-17T11:02:24.705Z,8.54
2023-03-17T11:03:24.742Z,7.92
2023-03-17T11:04:24.710Z,7.61
2023-03-17T11:05:24.772Z,7.20
2023-03-17T11:06:24.673Z,7.06
2023-03-17T11:07:24.695Z,6.76
2023-03-17T11:08:24.686Z,6.50
2023-03-17T11:09:24.698Z,6.66
2023-03-17T11:10:24.987Z,5.79
2023-03-17T11:12:24.748Z,6.57
2023-03-17T11:13:24.714Z,5.57
2023-03-17T11:14:24.754Z,6.81
2023-03-17T11:15:24.709Z,6.04
2023-03-17T11:16:24.829Z,6.47
2023-03-17T11:17:24.751Z,7.01
2023-03-17T11:18:24.757Z,6.36
2023-03-17T11:19:24.764Z,6.22
2023-03-17T11:20:24.730Z,6.47
2023-03-17T11:21:24.718Z,5.84
2023-03-17T11:22:24.830Z,6.62
2023-03-17T11:23:24.817Z,6.45
2023-03-17T11:24:24.734Z,6.35
2023-03-17T11:25:24.774Z,6.77
2023-03-17T11:26:24.786Z,5.82
2023-03-17T11:27:24.764Z,5.56
2023-03-17T11:28:24.783Z,5.84
2023-03-17T11:29:24.784Z,5.28
2023-03-17T11:30:24.757Z,6.12
2023-03-17T11:31:24.791Z,6.84
2023-03-17T11:32:24.763Z,5.62
2023-03-17T11:33:24.818Z,5.63
2023-03-17T11:34:24.804Z,5.93
2023-03-17T11:35:24.768Z,5.60
2023-03-17T11:36:24.797Z,5.92
2023-03-17T11:37:24.763Z,5.33
2023-03-17T11:38:24.801Z,5.89
2023-03-17T11:39:24.767Z,4.65
2023-03-17T11:40:24.817Z,5.09
2023-03-17T11:41:24.888Z,4.95
2023-03-17T11:42:24.797Z,5.39
2023-03-17T11:43:24.823Z,5.09
2023-03-17T11:44:24.785Z,4.97
2023-03-17T11:45:24.803Z,4.73
2023-03-17T11:46:24.890Z,5.26
2023-03-17T11:47:24.836Z,5.04
2023-03-17T11:48:24.795Z,5.25
2023-03-17T11:49:24.850Z,5.06
2023-03-17T11:50:24.845Z,5.54
2023-03-17T11:51:24.881Z,5.31
2023-03-17T11:52:24.843Z,4.75
2023-03-17T11:53:24.842Z,4.31
2023-03-17T11:55:24.886Z,4.58
2023-03-17T11:56:24.818Z,4.14
2023-03-17T11:57:24.857Z,4.18
2023-03-17T11:58:24.858Z,4.30
2023-03-17T11:59:24.868Z,3.49
2023-03-17T12:00:24.857Z,4.50
2023-03-17T12:01:24.899Z,4.25
2023-03-17T12:02:24.883Z,4.75
2023-03-17T12:03:24.920Z,4.44
2023-03-17T12:04:25.020Z,4.34
2023-03-17T12:05:24.879Z,4.30
2023-03-17T12:06:24.881Z,4.56
2023-03-17T12:07:24.851Z,3.80
2023-03-17T12:08:24.891Z,4.55
2023-03-17T12:09:24.845Z,4.96
2023-03-17T12:10:24.877Z,5.12
2023-03-17T12:11:24.892Z,5.69
2023-03-17T12:12:24.870Z,5.16
2023-03-17T12:13:24.855Z,4.72
2023-03-17T12:14:24.857Z,5.03
2023-03-17T12:15:24.924Z,4.63
2023-03-17T12:16:24.905Z,5.55
2023-03-17T12:17:26.870Z,5.83
2023-03-17T12:18:24.874Z,4.77
2023-03-17T12:19:24.944Z,4.56
2023-03-17T12:20:24.869Z,5.28
2023-03-17T12:21:24.922Z,5.00
2023-03-17T12:22:24.927Z,5.73
2023-03-17T12:23:24.890Z,4.64
2023-03-17T12:25:24.892Z,4.25
2023-03-17T12:26:24.888Z,4.37
2023-03-17T12:27:24.945Z,4.19
2023-03-17T12:28:24.924Z,4.01
2023-03-17T12:29:24.895Z,4.83
2023-03-17T12:30:24.934Z,4.02
2023-03-17T12:31:25.000Z,4.21
2023-03-17T12:32:24.910Z,4.24
2023-03-17T12:33:24.944Z,4.20
2023-03-17T12:34:24.972Z,3.96
2023-03-17T12:35:24.952Z,4.07
2023-03-17T12:36:24.921Z,4.62
2023-03-17T12:37:24.974Z,4.55
2023-03-17T12:38:24.964Z,3.91
2023-03-17T12:40:26.205Z,3.37
2023-03-17T12:41:24.925Z,4.02
2023-03-17T12:42:24.962Z,3.65
2023-03-17T12:43:24.945Z,4.49
2023-03-17T12:44:24.981Z,4.27
2023-03-17T12:45:24.937Z,4.31
2023-03-17T12:46:25.013Z,4.22
2023-03-17T12:48:24.982Z,4.16
2023-03-17T12:49:24.954Z,3.88
2023-03-17T12:50:24.961Z,4.65
2023-03-17T12:51:24.977Z,4.61
2023-03-17T12:53:24.964Z,4.03
2023-03-17T12:54:24.950Z,3.44
2023-03-17T12:55:25.000Z,4.11
2023-03-17T12:56:25.016Z,4.44
2023-03-17T12:57:25.045Z,4.22
2023-03-17T12:58:26.444Z,4.15
2023-03-17T12:59:25.018Z,3.68
2023-03-17T13:00:24.966Z,4.10
2023-03-17T13:01:25.089Z,4.30
2023-03-17T13:02:25.064Z,3.74
2023-03-17T13:03:25.058Z,4.56
2023-03-17T13:04:27.027Z,4.27
2023-03-17T13:05:25.023Z,4.30
2023-03-17T13:06:24.991Z,3.93
2023-03-17T13:07:25.050Z,5.57
2023-03-17T13:09:25.000Z,4.44
2023-03-17T13:10:25.070Z,4.06
2023-03-17T13:11:25.066Z,3.77
2023-03-17T13:12:25.035Z,4.13
2023-03-17T13:13:25.066Z,3.55
2023-03-17T13:14:25.057Z,4.05
2023-03-17T13:15:25.083Z,4.58
2023-03-17T13:16:26.681Z,4.49
2023-03-17T13:17:25.042Z,4.51
2023-03-17T13:18:25.062Z,4.01
2023-03-17T13:19:25.089Z,3.80
2023-03-17T13:20:25.125Z,4.11
2023-03-17T13:21:25.023Z,4.10
2023-03-17T13:24:25.133Z,4.53
2023-03-17T13:25:25.038Z,4.01
2023-03-17T13:26:25.036Z,3.77
2023-03-17T13:27:25.093Z,4.90
2023-03-17T13:28:25.058Z,5.03
2023-03-17T13:29:25.103Z,4.88
2023-03-17T13:30:25.129Z,5.43
2023-03-17T13:31:25.112Z,4.44
2023-03-17T13:32:25.104Z,4.02
2023-03-17T13:33:25.102Z,4.75
2023-03-17T13:34:25.064Z,4.85
2023-03-17T13:35:25.162Z,4.85
2023-03-17T13:36:25.083Z,4.31
2023-03-17T13:37:25.080Z,4.56
2023-03-17T13:38:25.108Z,4.48
2023-03-17T13:39:25.182Z,4.49
2023-03-17T13:40:25.080Z,3.96
2023-03-17T13:41:25.142Z,4.36
2023-03-17T13:42:25.127Z,3.97
2023-03-17T13:43:25.121Z,3.88
2023-03-17T13:44:25.100Z,4.74
2023-03-17T13:45:25.256Z,4.18
2023-03-17T13:46:25.305Z,4.19
2023-03-17T13:47:25.131Z,3.81
2023-03-17T13:48:25.114Z,4.07
2023-03-17T13:49:25.140Z,3.52
2023-03-17T13:50:25.105Z,4.20
2023-03-17T13:52:25.129Z,3.44
2023-03-17T13:53:25.118Z,4.09
2023-03-17T13:54:25.193Z,3.69
2023-03-17T13:55:25.183Z,3.78
2023-03-17T13:56:25.196Z,4.28
2023-03-17T13:57:25.144Z,6.89
2023-03-17T13:58:25.174Z,4.57
2023-03-17T13:59:25.163Z,5.22
2023-03-17T14:00:25.287Z,4.18
2023-03-17T14:01:25.226Z,4.56
2023-03-17T14:02:25.198Z,4.66
2023-03-17T14:03:25.203Z,4.89
2023-03-17T14:04:25.235Z,5.43
2023-03-17T14:05:25.185Z,5.44
2023-03-17T14:06:25.142Z,4.01
2023-03-17T14:07:25.156Z,4.51
2023-03-17T14:08:25.238Z,4.09
2023-03-17T14:09:25.243Z,4.42
2023-03-17T14:10:25.159Z,3.52
2023-03-17T14:11:25.195Z,4.02
2023-03-17T14:12:25.218Z,3.57
2023-03-17T14:13:25.180Z,3.41
2023-03-17T14:14:32.463Z,4.20
2023-03-17T14:15:25.174Z,3.39
2023-03-17T14:16:25.253Z,3.60
2023-03-17T14:17:25.237Z,4.00
2023-03-17T14:18:25.185Z,4.70
2023-03-17T14:19:25.230Z,3.70
2023-03-17T14:20:25.214Z,3.74
2023-03-17T14:21:25.247Z,3.74
2023-03-17T14:22:25.242Z,3.58
2023-03-17T14:24:25.235Z,4.14
2023-03-17T14:26:25.439Z,3.83
2023-03-17T14:27:25.232Z,4.09
2023-03-17T14:28:25.253Z,3.27
2023-03-17T14:29:25.261Z,3.87
2023-03-17T14:31:25.300Z,4.97
2023-03-17T14:32:25.300Z,4.49
2023-03-17T14:33:25.260Z,3.53
2023-03-17T14:34:25.227Z,3.01
2023-03-17T14:35:25.262Z,2.85
2023-03-17T14:36:25.232Z,2.08
2023-03-17T14:37:25.276Z,2.81
2023-03-17T14:38:25.270Z,2.07
2023-03-17T14:39:25.267Z,2.48
2023-03-17T14:40:25.314Z,2.85
2023-03-17T14:41:25.274Z,2.70
2023-03-17T14:42:25.256Z,2.95
2023-03-17T14:43:25.232Z,2.49
2023-03-17T14:44:25.278Z,2.66
2023-03-17T14:45:25.286Z,3.06
2023-03-17T14:46:25.291Z,2.85
2023-03-17T14:47:25.262Z,2.69
2023-03-17T14:48:25.313Z,2.94
2023-03-17T14:49:25.306Z,2.86
2023-03-17T14:50:25.279Z,2.48
2023-03-17T14:51:25.266Z,2.79
2023-03-17T14:52:25.321Z,2.39
2023-03-17T14:53:25.303Z,2.47